LFCK/DCM METAR and TAF weather

Enter ICAO airport designator
Station Type Date Time Source
LFCK METAR 2018/12/13 21:00 UTC NOAA

LFCK 132100Z AUTO 00000KT 3700 -RA BR BKN007/// BKN013/// OVC052/// ///TCU 06/06 Q1010 TEMPO 2000 RA BKN003


Station Type Date Time Source
LFCK Decoded METAR 2018/12/13 21:00 UTC NOAA

Station name not available
Dec 13, 2018 - 04:00 PM EST / 2018.12.13 2100 UTC
Wind: Calm:0
Visibility: 2 mile(s):0
Sky conditions: overcast
Weather: light rain; mist; Towering cumulus clouds observed
Temperature: 42 F (6 C)
Dew Point: 42 F (6 C)
Relative Humidity: 100%
Pressure (altimeter): 29.83 in. Hg (1010 hPa)
ob: LFCK 132100Z AUTO 00000KT 3700 -RA BR BKN007/// BKN013/// OVC052/// ///TCU 06/06 Q1010 TEMPO 2000 RA BKN003
cycle: 21

Station Type Date Time Source
LFCK TAF UTC NOAA

Error!


Example: see airport list